Time;durP1;ratioP1;P1;durP2;ratioP2;P2;SDS_P1;SDS_P2;PMS_P1;PMS_P2;Temp;Humidity;BMP_temperature;BMP_pressure;BME280_temperature;BME280_humidity;BME280_pressure;Samples;Min_cycle;Max_cycle;Signal;HPM_P1;HPM_P2
2020/12/13 00:00:14;;;;;;;19.02;12.25;;;;;;;4.79;89.42;95509.75;4861443;29;20389;-78
2020/12/13 00:02:41;;;;;;;17.80;12.18;;;;;;;4.80;89.50;95513.94;4877203;29;20405;-78
2020/12/13 00:05:07;;;;;;;18.95;12.68;;;;;;;4.81;89.45;95515.53;4863622;29;20049;-78
2020/12/13 00:07:34;;;;;;;19.23;12.38;;;;;;;4.81;89.58;95517.34;4878497;29;20045;-78
2020/12/13 00:10:01;;;;;;;17.30;12.13;;;;;;;4.81;89.53;95518.13;4848505;29;20056;-78
2020/12/13 00:12:28;;;;;;;17.20;11.85;;;;;;;4.81;89.53;95528.53;4862782;29;20037;-78
2020/12/13 00:14:54;;;;;;;18.95;12.93;;;;;;;4.77;89.37;95527.34;4879248;29;20045;-79
2020/12/13 00:17:21;;;;;;;18.08;12.15;;;;;;;4.76;89.36;95530.91;4877326;29;20049;-78
2020/12/13 00:19:47;;;;;;;15.05;10.90;;;;;;;4.76;89.62;95532.72;4863541;29;20513;-77
2020/12/13 00:22:13;;;;;;;16.73;12.40;;;;;;;4.73;89.34;95533.16;4848566;29;20049;-78
2020/12/13 00:24:39;;;;;;;15.20;11.25;;;;;;;4.71;89.60;95529.94;4879121;29;20049;-83
2020/12/13 00:27:06;;;;;;;16.05;10.70;;;;;;;4.70;89.50;95525.75;4882801;29;20414;-78
2020/12/13 00:29:32;;;;;;;17.65;11.88;;;;;;;4.72;89.65;95536.72;4878241;29;20045;-78
2020/12/13 00:31:58;;;;;;;15.27;11.52;;;;;;;4.72;89.71;95532.31;4846172;29;20040;-78
2020/12/13 00:34:24;;;;;;;19.10;11.73;;;;;;;4.74;89.64;95542.53;4856017;29;20048;-78
2020/12/13 00:36:53;;;;;;;15.30;11.85;;;;;;;4.74;89.64;95540.72;4847869;29;20048;-78
2020/12/13 00:39:20;;;;;;;13.50;10.65;;;;;;;4.75;89.57;95544.91;4878316;29;20410;-78
2020/12/13 00:41:50;;;;;;;16.85;11.90;;;;;;;4.76;89.59;95546.50;4860065;29;20079;-78
2020/12/13 00:44:17;;;;;;;18.17;12.23;;;;;;;4.76;89.61;95549.09;4855950;29;20057;-79
2020/12/13 00:46:44;;;;;;;15.35;11.27;;;;;;;4.75;89.74;95542.31;4877851;29;20045;-78
2020/12/13 00:49:10;;;;;;;18.23;12.57;;;;;;;4.77;89.72;95552.50;4879983;29;20052;-78
2020/12/13 00:51:37;;;;;;;20.80;12.50;;;;;;;4.72;89.45;95550.50;4861582;29;20410;-78
2020/12/13 00:54:03;;;;;;;15.95;11.05;;;;;;;4.69;89.53;95550.94;4848888;29;20045;-79
2020/12/13 00:56:29;;;;;;;18.08;12.52;;;;;;;4.67;89.59;95555.53;4875782;29;20056;-78
2020/12/13 00:58:55;;;;;;;17.52;12.05;;;;;;;4.67;89.53;95558.91;4878379;29;20049;-78
2020/12/13 01:01:23;;;;;;;16.33;11.57;;;;;;;4.68;89.90;95567.50;4879404;29;20037;-78
2020/12/13 01:03:49;;;;;;;18.75;12.75;;;;;;;4.70;89.90;95572.50;4867462;29;20043;-78
2020/12/13 01:06:26;;;;;;;18.52;12.20;;;;;;;4.71;89.88;95574.09;4869717;29;20478;-78
2020/12/13 01:08:53;;;;;;;17.08;11.65;;;;;;;4.71;89.92;95574.09;4877182;29;20041;-79
2020/12/13 01:11:27;;;;;;;16.75;11.85;;;;;;;4.71;89.92;95577.50;4855052;29;20478;-78
2020/12/13 01:13:54;;;;;;;16.17;11.45;;;;;;;4.72;89.79;95578.28;4860290;29;20053;-78
2020/12/13 01:16:21;;;;;;;16.13;11.48;;;;;;;4.72;89.87;95573.88;4846970;29;20053;-78
2020/12/13 01:18:48;;;;;;;16.73;12.13;;;;;;;4.75;89.83;95577.88;4877808;29;20049;-78
2020/12/13 01:21:16;;;;;;;17.90;12.25;;;;;;;4.75;89.80;95575.28;4861748;29;20037;-78
2020/12/13 01:23:42;;;;;;;18.75;11.77;;;;;;;4.75;89.86;95586.47;4877670;29;20051;-78
2020/12/13 01:26:11;;;;;;;16.05;11.65;;;;;;;4.76;89.67;95590.66;4863182;29;20037;-78
2020/12/13 01:28:38;;;;;;;16.40;11.18;;;;;;;4.78;89.96;95590.47;4877947;29;20051;-78
2020/12/13 01:31:04;;;;;;;16.08;10.88;;;;;;;4.77;89.73;95584.47;4861820;29;20045;-77
2020/12/13 01:33:30;;;;;;;15.50;10.93;;;;;;;4.78;89.76;95596.44;4877436;29;20425;-78
2020/12/13 01:35:57;;;;;;;15.85;11.40;;;;;;;4.78;89.80;95593.84;4859836;29;20045;-78
2020/12/13 01:38:23;;;;;;;15.65;11.10;;;;;;;4.78;89.85;95596.44;4876821;29;20040;-78
2020/12/13 01:40:56;;;;;;;17.95;10.88;;;;;;;4.81;89.76;95603.84;4861449;29;20045;-78
2020/12/13 01:43:23;;;;;;;15.85;11.57;;;;;;;4.78;89.85;95599.03;4878135;29;20044;-78
2020/12/13 01:45:49;;;;;;;14.93;11.00;;;;;;;4.79;89.84;95610.25;4860603;29;20492;-80
2020/12/13 01:48:17;;;;;;;15.13;10.77;;;;;;;4.78;89.89;95611.25;4876564;29;20052;-78
2020/12/13 01:50:52;;;;;;;20.20;12.73;;;;;;;4.77;89.98;95610.44;4877540;29;20048;-78
2020/12/13 01:53:24;;;;;;;15.00;10.65;;;;;;;4.74;89.92;95612.63;4862565;29;20044;-77
2020/12/13 01:55:55;;;;;;;16.15;10.98;;;;;;;4.74;89.98;95617.84;4877555;29;20061;-78
2020/12/13 01:58:28;;;;;;;18.60;11.00;;;;;;;4.77;90.03;95622.66;4860104;29;20390;-79
2020/12/13 02:00:58;;;;;;;16.60;11.40;;;;;;;4.78;89.91;95625.03;4857573;29;20049;-78
2020/12/13 02:03:28;;;;;;;15.32;11.07;;;;;;;4.79;90.10;95628.44;4877479;29;20056;-78
2020/12/13 02:06:00;;;;;;;19.13;13.20;;;;;;;4.77;90.05;95623.44;4878125;29;20049;-78
2020/12/13 02:08:37;;;;;;;16.90;11.90;;;;;;;4.75;89.97;95616.84;4878426;29;20053;-78
2020/12/13 02:11:04;;;;;;;16.40;11.43;;;;;;;4.75;90.02;95622.84;4862398;29;20067;-78
2020/12/13 02:13:30;;;;;;;18.25;12.25;;;;;;;4.76;90.01;95631.41;4861150;29;20044;-77
2020/12/13 02:15:57;;;;;;;17.83;11.35;;;;;;;4.76;90.04;95624.41;4878075;29;20048;-78
2020/12/13 02:18:23;;;;;;;16.75;11.57;;;;;;;4.77;90.05;95628.63;4875761;29;20049;-77
2020/12/13 02:20:49;;;;;;;16.23;11.15;;;;;;;4.77;90.06;95625.25;4845478;29;20048;-77
2020/12/13 02:23:16;;;;;;;15.02;10.90;;;;;;;4.79;90.09;95633.63;4860570;29;20045;-77
2020/12/13 02:25:42;;;;;;;14.85;10.98;;;;;;;4.79;90.09;95637.03;4862278;29;20049;-79
2020/12/13 02:28:08;;;;;;;15.20;11.23;;;;;;;4.80;89.98;95640.41;4874768;29;20041;-78
2020/12/13 02:30:34;;;;;;;18.75;11.25;;;;;;;4.80;90.09;95643.00;4861656;29;20041;-78
2020/12/13 02:33:00;;;;;;;15.10;11.20;;;;;;;4.79;89.95;95642.22;4868093;29;20049;-83
2020/12/13 02:35:27;;;;;;;13.98;10.45;;;;;;;4.80;89.93;95649.00;4861520;29;20413;-78
2020/12/13 02:37:53;;;;;;;17.88;11.65;;;;;;;4.82;90.04;95657.38;4875403;29;20053;-77
2020/12/13 02:40:20;;;;;;;15.90;11.68;;;;;;;4.82;89.83;95654.00;4877285;29;20045;-78
2020/12/13 02:42:48;;;;;;;16.67;11.30;;;;;;;4.82;89.84;95654.00;4875037;29;20052;-78
2020/12/13 02:45:14;;;;;;;16.45;12.13;;;;;;;4.84;89.97;95654.59;4845822;29;20041;-77
2020/12/13 02:47:40;;;;;;;18.42;10.90;;;;;;;4.84;89.98;95652.00;4861768;29;20053;-78
2020/12/13 02:50:07;;;;;;;18.55;11.60;;;;;;;4.83;89.94;95648.59;4859854;29;20497;-78
2020/12/13 02:52:33;;;;;;;16.58;12.45;;;;;;;4.84;90.01;95654.59;4877173;29;20045;-78
2020/12/13 02:54:59;;;;;;;16.40;11.82;;;;;;;4.85;89.77;95661.38;4861275;29;20064;-78
2020/12/13 02:57:25;;;;;;;17.05;11.48;;;;;;;4.86;89.93;95663.00;4857609;29;20046;-78
2020/12/13 02:59:52;;;;;;;16.83;11.23;;;;;;;4.85;89.93;95666.56;4858393;29;20093;-78
2020/12/13 03:02:18;;;;;;;16.50;11.30;;;;;;;4.85;89.96;95674.34;4860679;29;20041;-78
2020/12/13 03:04:44;;;;;;;17.58;11.38;;;;;;;4.84;89.89;95665.00;4862318;29;20041;-78
2020/12/13 03:07:10;;;;;;;15.82;11.20;;;;;;;4.83;89.77;95664.19;4876225;29;20475;-78
2020/12/13 03:09:37;;;;;;;18.27;11.30;;;;;;;4.81;89.75;95668.00;4858680;29;20050;-78
2020/12/13 03:12:04;;;;;;;14.30;10.50;;;;;;;4.80;89.31;95668.97;4860652;29;20052;-78
2020/12/13 03:14:31;;;;;;;13.57;9.68;;;;;;;4.78;89.50;95673.56;4861117;29;20053;-78
2020/12/13 03:16:57;;;;;;;15.45;10.80;;;;;;;4.76;89.42;95675.56;4860848;29;20399;-78
2020/12/13 03:19:23;;;;;;;13.88;10.25;;;;;;;4.75;89.27;95676.59;4862741;29;20057;-78
2020/12/13 03:21:50;;;;;;;15.43;10.68;;;;;;;4.73;89.24;95683.78;4845874;29;20037;-78
2020/12/13 03:24:16;;;;;;;16.95;10.45;;;;;;;4.72;89.38;95684.75;4861101;29;20057;-78
2020/12/13 03:26:43;;;;;;;15.10;11.00;;;;;;;4.71;89.35;95683.97;4861094;29;20061;-78
2020/12/13 03:29:09;;;;;;;15.45;10.50;;;;;;;4.71;89.56;95690.97;4875009;29;20049;-78
2020/12/13 03:31:36;;;;;;;16.52;11.48;;;;;;;4.70;89.52;95689.34;4862234;29;20064;-78
2020/12/13 03:34:03;;;;;;;16.05;11.05;;;;;;;4.67;89.59;95693.94;4868826;29;20399;-78
2020/12/13 03:36:29;;;;;;;15.32;9.93;;;;;;;4.68;89.70;95690.38;4860994;29;20056;-78
2020/12/13 03:38:55;;;;;;;16.13;10.38;;;;;;;4.68;89.38;95698.16;4860232;29;20447;-78
2020/12/13 03:41:21;;;;;;;14.25;9.57;;;;;;;4.68;89.68;95700.75;4860097;29;20189;-78
2020/12/13 03:43:48;;;;;;;14.93;10.77;;;;;;;4.70;89.54;95708.31;4862711;29;20061;-78
2020/12/13 03:46:14;;;;;;;14.15;9.82;;;;;;;4.69;89.62;95711.94;4860022;29;20048;-78
2020/12/13 03:48:40;;;;;;;15.57;11.13;;;;;;;4.68;89.55;95716.34;4860411;29;20057;-78
2020/12/13 03:51:06;;;;;;;16.50;10.60;;;;;;;4.67;89.35;95719.91;4850503;29;20053;-77
2020/12/13 03:53:32;;;;;;;14.02;10.23;;;;;;;4.66;89.71;95722.72;4860798;29;20045;-77
2020/12/13 03:55:58;;;;;;;16.52;11.82;;;;;;;4.61;89.46;95725.91;4867402;29;20053;-78
2020/12/13 03:58:24;;;;;;;15.60;11.00;;;;;;;4.58;89.47;95723.72;4877734;29;20059;-83
2020/12/13 04:00:51;;;;;;;15.57;10.70;;;;;;;4.56;89.73;95730.91;4863224;29;20044;-78
2020/12/13 04:03:17;;;;;;;15.45;10.55;;;;;;;4.55;89.54;95734.47;4860451;29;20041;-78
2020/12/13 04:05:43;;;;;;;16.17;11.43;;;;;;;4.55;89.68;95737.06;4847594;29;20061;-78
2020/12/13 04:08:09;;;;;;;15.43;10.32;;;;;;;4.55;89.79;95733.69;4863112;29;20037;-78
2020/12/13 04:10:35;;;;;;;18.10;11.07;;;;;;;4.56;89.54;95740.50;4865052;29;20044;-78
2020/12/13 04:13:01;;;;;;;16.23;10.32;;;;;;;4.57;89.75;95749.88;4863551;29;20501;-78
2020/12/13 04:15:27;;;;;;;15.13;10.85;;;;;;;4.57;89.62;95752.47;4860838;29;20056;-78
2020/12/13 04:17:54;;;;;;;14.32;9.63;;;;;;;4.58;89.90;95744.50;4878466;29;20056;-78
2020/12/13 04:20:20;;;;;;;14.55;9.95;;;;;;;4.60;89.90;95752.06;4877062;29;20040;-78
2020/12/13 04:22:46;;;;;;;15.85;10.60;;;;;;;4.60;89.66;95757.25;4863606;29;20044;-78
2020/12/13 04:25:12;;;;;;;25.95;10.68;;;;;;;4.62;89.80;95758.69;4878959;29;20052;-78
2020/12/13 04:27:39;;;;;;;14.43;9.90;;;;;;;4.60;89.69;95758.06;4862244;29;20402;-78
2020/12/13 04:30:05;;;;;;;19.55;10.15;;;;;;;4.61;89.81;95758.88;4866828;29;20068;-78
2020/12/13 04:32:32;;;;;;;13.30;9.52;;;;;;;4.62;89.74;95750.88;4877965;29;20064;-78
2020/12/13 04:34:58;;;;;;;12.82;9.18;;;;;;;4.63;89.81;95762.88;4877953;29;20387;-79
2020/12/13 04:37:24;;;;;;;13.65;9.38;;;;;;;4.63;89.68;95754.28;4861874;29;20059;-81
2020/12/13 04:39:52;;;;;;;14.30;9.50;;;;;;;4.63;89.75;95749.88;4878015;29;20053;-79
2020/12/13 04:42:22;;;;;;;14.25;9.70;;;;;;;4.61;89.65;95751.88;4863153;29;20049;-78
2020/12/13 04:44:49;;;;;;;12.80;9.10;;;;;;;4.62;89.42;95750.06;4859408;29;20052;-78
2020/12/13 04:47:18;;;;;;;13.85;9.80;;;;;;;4.61;89.38;95751.88;4859875;29;20041;-78
2020/12/13 04:49:50;;;;;;;13.35;9.35;;;;;;;4.61;89.45;95756.28;4860972;29;20041;-78
2020/12/13 04:52:16;;;;;;;14.82;9.15;;;;;;;4.60;89.61;95755.47;4877930;29;20053;-78
2020/12/13 04:54:51;;;;;;;13.60;8.98;;;;;;;4.60;89.48;95773.66;4880413;29;20064;-78
2020/12/13 04:57:17;;;;;;;;;;;;;;;4.58;89.41;95774.84;4878037;29;20064;-78
2020/12/13 04:59:46;;;;;;;14.20;9.48;;;;;;;4.54;89.41;95776.25;4860798;29;19924;-78
2020/12/13 05:02:13;;;;;;;11.70;8.50;;;;;;;4.55;89.38;95780.44;4854534;29;20108;-78
2020/12/13 05:04:40;;;;;;;12.35;8.00;;;;;;;4.53;89.45;95791.00;4878657;29;20052;-77
2020/12/13 05:07:07;;;;;;;10.55;8.18;;;;;;;4.55;89.52;95794.19;4877617;29;20402;-77
2020/12/13 05:09:33;;;;;;;13.48;8.48;;;;;;;4.54;89.60;95794.41;4862638;29;20052;-78
2020/12/13 05:11:59;;;;;;;12.70;8.43;;;;;;;4.54;89.47;95792.63;4861721;29;20045;-78
2020/12/13 05:14:26;;;;;;;13.95;9.18;;;;;;;4.55;89.70;95796.78;4879656;29;20036;-78
2020/12/13 05:17:19;;;;;;;12.70;8.60;;;;;;;4.55;89.60;95798.59;4876084;29;20052;-78
2020/12/13 05:19:49;;;;;;;12.93;8.48;;;;;;;4.55;89.64;95799.41;4876526;29;20072;-79
2020/12/13 05:22:21;;;;;;;13.02;8.77;;;;;;;4.56;89.54;95797.63;4879101;29;20045;-78
2020/12/13 05:24:50;;;;;;;13.82;9.18;;;;;;;4.55;89.55;95807.19;4877839;29;20060;-78
2020/12/13 05:27:23;;;;;;;11.93;8.15;;;;;;;4.56;89.57;95808.78;4855085;29;20504;-78
2020/12/13 05:29:52;;;;;;;11.57;8.20;;;;;;;4.55;89.64;95814.19;4861946;29;20045;-78
2020/12/13 05:32:22;;;;;;;11.77;7.82;;;;;;;4.57;89.55;95822.56;4864228;29;20041;-78
2020/12/13 05:34:50;;;;;;;11.98;8.57;;;;;;;4.58;89.81;95826.78;4877529;29;20052;-78
2020/12/13 05:37:18;;;;;;;14.00;8.07;;;;;;;4.58;89.58;95826.78;4869923;29;20059;-77
2020/12/13 05:39:49;;;;;;;12.57;7.72;;;;;;;4.57;89.62;95823.38;4846070;29;20041;-80
2020/12/13 05:42:35;;;;;;;10.50;7.68;;;;;;;4.59;89.41;95828.38;4879818;29;20492;-78
2020/12/13 05:53:29;;;;;;;9.68;7.35;;;;;;;4.60;89.67;95828.19;4879031;29;20402;-77
2020/12/13 05:55:57;;;;;;;10.98;7.95;;;;;;;4.62;89.62;95840.94;4865320;29;20060;-78
2020/12/13 05:58:27;;;;;;;11.25;7.50;;;;;;;4.62;89.84;95834.00;4878254;29;20045;-78
2020/12/13 06:00:54;;;;;;;11.10;7.45;;;;;;;4.63;89.61;95832.19;4875196;29;20045;-82
2020/12/13 06:03:35;;;;;;;11.10;7.93;;;;;;;4.64;89.72;95833.78;4860869;29;20041;-78
2020/12/13 06:06:06;;;;;;;10.68;7.65;;;;;;;4.63;89.66;95838.16;4873452;29;20048;-77
2020/12/13 06:09:10;;;;;;;11.55;8.00;;;;;;;4.65;89.80;95845.78;4877465;29;20517;-78
2020/12/13 06:11:48;;;;;;;9.40;7.30;;;;;;;4.65;89.74;95848.38;4855961;29;20041;-78
2020/12/13 06:14:23;;;;;;;12.88;8.63;;;;;;;4.65;89.78;95853.56;4876361;29;20049;-78
2020/12/13 06:16:50;;;;;;;11.60;8.18;;;;;;;4.64;89.70;95863.16;4859929;29;20033;-78
2020/12/13 06:19:24;;;;;;;9.35;7.43;;;;;;;4.65;89.82;95872.53;4860557;29;20037;-78
2020/12/13 06:21:54;;;;;;;10.00;7.57;;;;;;;4.65;89.63;95872.53;4877001;29;20406;-79
2020/12/13 06:24:21;;;;;;;10.43;7.75;;;;;;;4.65;89.82;95866.56;4876511;29;20056;-78
2020/12/13 06:26:48;;;;;;;11.20;7.53;;;;;;;4.63;89.71;95873.72;4875927;29;20037;-78
2020/12/13 06:29:15;;;;;;;11.82;7.65;;;;;;;4.62;89.88;95874.72;4878960;29;20061;-78
2020/12/13 06:31:41;;;;;;;9.07;6.82;;;;;;;4.61;90.01;95876.53;4878394;29;20049;-78
2020/12/13 06:34:08;;;;;;;11.00;7.63;;;;;;;4.61;89.93;95880.91;4877799;29;20060;-77
2020/12/13 06:36:36;;;;;;;9.93;7.65;;;;;;;4.63;90.09;95877.13;4879435;29;20059;-78
2020/12/13 06:39:17;;;;;;;9.13;7.05;;;;;;;4.65;90.29;95887.34;4878367;29;20186;-78
2020/12/13 06:41:46;;;;;;;8.75;6.75;;;;;;;4.65;90.20;95884.72;4881234;29;20037;-78
2020/12/13 06:44:13;;;;;;;8.55;6.85;;;;;;;4.64;90.38;95899.53;4882315;29;20060;-78
2020/12/13 06:46:44;;;;;;;8.73;6.88;;;;;;;4.67;90.19;95896.53;4882558;29;20033;-79
2020/12/13 06:49:12;;;;;;;10.02;7.50;;;;;;;4.68;90.31;95903.34;4882747;29;20046;-78
2020/12/13 06:51:40;;;;;;;9.55;7.03;;;;;;;4.69;90.42;95911.91;4850008;29;20048;-78
2020/12/13 06:54:11;;;;;;;10.73;7.53;;;;;;;4.70;90.41;95904.91;4865873;29;20049;-78
2020/12/13 06:56:39;;;;;;;8.18;5.88;;;;;;;4.68;90.34;95911.13;4881587;29;20060;-78
2020/12/13 06:59:07;;;;;;;9.25;6.20;;;;;;;4.68;90.15;95920.69;4881018;29;20068;-78
2020/12/13 07:01:39;;;;;;;7.78;5.53;;;;;;;4.68;90.47;95916.31;4882186;29;20431;-78
2020/12/13 07:04:21;;;;;;;7.40;6.28;;;;;;;4.70;90.65;95926.50;4881996;29;20044;-78
2020/12/13 07:06:50;;;;;;;10.07;8.13;;;;;;;4.70;90.56;95920.50;4850174;29;20041;-78
2020/12/13 07:09:18;;;;;;;11.77;8.52;;;;;;;4.68;90.63;95931.91;4880894;29;20041;-78
2020/12/13 07:11:45;;;;;;;9.52;6.78;;;;;;;4.68;90.63;95928.47;4881961;29;20052;-79
2020/12/13 07:14:13;;;;;;;11.93;7.63;;;;;;;4.68;90.66;95926.72;4881118;29;20041;-78
2020/12/13 07:16:43;;;;;;;7.32;6.28;;;;;;;4.73;90.78;95940.91;4862514;29;20042;-78
2020/12/13 07:19:15;;;;;;;10.07;5.88;;;;;;;4.74;90.81;95945.09;4879925;29;20032;-78
2020/12/13 07:21:44;;;;;;;11.93;7.65;;;;;;;4.74;90.78;95948.50;4881668;29;20041;-78
2020/12/13 07:24:11;;;;;;;14.38;8.95;;;;;;;4.71;90.89;95946.28;4865340;29;20033;-78
2020/12/13 07:26:42;;;;;;;21.20;14.52;;;;;;;4.67;90.97;95948.47;4865515;29;20049;-78
2020/12/13 07:29:15;;;;;;;17.60;13.48;;;;;;;4.68;90.96;95960.47;4881869;29;20041;-78
2020/12/13 07:31:46;;;;;;;13.57;9.20;;;;;;;4.71;91.10;95963.69;4866309;29;20052;-78
2020/12/13 07:34:13;;;;;;;8.98;6.65;;;;;;;4.71;91.04;95961.09;4863738;29;20597;-78
2020/12/13 07:36:40;;;;;;;11.77;5.88;;;;;;;4.74;91.01;95971.88;4864807;29;20048;-80
2020/12/13 07:39:08;;;;;;;7.07;5.28;;;;;;;4.76;90.99;95967.28;4879967;29;20052;-78
2020/12/13 07:41:34;;;;;;;7.40;5.47;;;;;;;4.78;90.83;95972.28;4880109;29;20049;-78
2020/12/13 07:44:04;;;;;;;7.47;5.93;;;;;;;4.82;90.79;95978.72;4881675;29;20036;-78
2020/12/13 07:46:31;;;;;;;5.82;4.88;;;;;;;4.84;90.72;95979.31;4881560;29;20044;-78
2020/12/13 07:49:21;;;;;;;6.03;5.05;;;;;;;4.87;90.57;95989.31;4881413;29;20053;-78
2020/12/13 07:51:49;;;;;;;8.55;5.38;;;;;;;4.88;90.50;95985.72;4864283;29;20410;-78
2020/12/13 07:54:27;;;;;;;5.03;3.70;;;;;;;4.88;90.14;95990.94;4878510;29;20045;-78
2020/12/13 07:56:56;;;;;;;7.40;4.55;;;;;;;4.90;90.32;95999.34;4873554;29;20049;-79
2020/12/13 07:59:29;;;;;;;5.50;3.85;;;;;;;4.88;89.88;95993.53;4864631;29;20499;-77
2020/12/13 08:01:56;;;;;;;5.15;3.75;;;;;;;4.89;89.99;95997.72;4863912;29;20059;-77
2020/12/13 08:04:38;;;;;;;6.68;3.50;;;;;;;4.88;89.29;95999.53;4881646;29;20390;-78
2020/12/13 08:07:06;;;;;;;537.53;190.10;;;;;;;4.87;89.26;96004.91;4879829;29;20041;-79
2020/12/13 08:09:32;;;;;;;611.58;247.15;;;;;;;4.89;89.06;96005.50;4864555;29;20052;-78
2020/12/13 08:11:59;;;;;;;177.38;75.55;;;;;;;4.91;88.90;96006.13;4880832;29;20037;-77
2020/12/13 08:14:26;;;;;;;32.45;20.23;;;;;;;4.93;88.74;96009.31;4848962;29;20045;-77
2020/12/13 08:16:54;;;;;;;27.75;17.70;;;;;;;4.95;88.86;96012.53;4881133;29;20063;-78
2020/12/13 08:19:33;;;;;;;22.83;14.98;;;;;;;5.00;88.27;96017.97;4879456;29;20475;-78
2020/12/13 08:22:03;;;;;;;16.35;14.07;;;;;;;5.05;88.48;96022.59;4880634;29;20041;-77
2020/12/13 08:24:30;;;;;;;12.98;10.32;;;;;;;5.12;88.91;96020.81;4873654;29;20052;-78
2020/12/13 08:26:59;;;;;;;8.90;7.95;;;;;;;5.17;88.53;96015.84;4863821;29;20061;-78
2020/12/13 08:29:27;;;;;;;10.20;7.15;;;;;;;5.23;88.71;96016.88;4881138;29;20489;-78
2020/12/13 08:31:56;;;;;;;10.88;6.30;;;;;;;5.28;89.16;96014.47;4878699;29;20029;-78
2020/12/13 08:34:30;;;;;;;9.10;6.10;;;;;;;5.35;89.22;96011.91;4864479;29;20033;-78
2020/12/13 08:36:59;;;;;;;12.73;5.97;;;;;;;5.41;88.63;96022.31;4879351;29;20052;-78
2020/12/13 08:39:27;;;;;;;7.68;5.32;;;;;;;5.47;89.04;96018.94;4880158;29;20045;-78
2020/12/13 08:41:54;;;;;;;8.60;4.65;;;;;;;5.54;88.88;96028.56;4863371;29;20053;-78
2020/12/13 08:44:28;;;;;;;7.30;4.80;;;;;;;5.61;88.80;96027.59;4879641;29;20036;-78
2020/12/13 08:46:55;;;;;;;6.85;5.10;;;;;;;5.68;88.76;96023.19;4871010;29;20402;-79
2020/12/13 08:49:29;;;;;;;6.30;5.13;;;;;;;5.76;89.14;96032.63;4880371;29;20041;-78
2020/12/13 08:51:55;;;;;;;;;;;;;;;5.82;88.75;96033.63;4880745;29;20398;-77
2020/12/13 08:54:21;;;;;;;6.93;4.20;;;;;;;5.85;87.99;96034.00;4872606;29;19912;-77
2020/12/13 08:56:53;;;;;;;5.28;4.20;;;;;;;5.88;88.27;96045.84;4875506;29;20061;-79
2020/12/13 08:59:21;;;;;;;5.28;4.38;;;;;;;5.88;88.23;96038.84;4878354;29;20486;-78
2020/12/13 09:01:57;;;;;;;5.45;3.92;;;;;;;5.89;88.14;96043.03;4863864;29;20057;-78
2020/12/13 09:04:25;;;;;;;11.32;8.30;;;;;;;5.89;87.48;96050.84;4878699;29;20045;-78
2020/12/13 09:06:59;;;;;;;9.02;5.63;;;;;;;5.87;86.88;96045.03;4863761;29;20040;-78
2020/12/13 09:09:29;;;;;;;;;;;;;;;5.87;86.86;96046.84;4880490;29;20501;-78
2020/12/13 09:11:55;;;;;;;6.88;5.38;;;;;;;5.87;87.56;96055.44;4879341;29;19920;-78
2020/12/13 09:14:31;;;;;;;6.82;4.88;;;;;;;5.86;86.99;96055.66;4860304;29;20033;-78
2020/12/13 09:16:59;;;;;;;15.65;13.57;;;;;;;5.86;87.02;96068.66;4875538;29;20045;-78
2020/12/13 09:19:28;;;;;;;18.63;13.40;;;;;;;5.99;87.76;96066.13;4875572;29;20402;-79
2020/12/13 09:21:59;;;;;;;16.08;9.95;;;;;;;6.18;88.14;96071.53;4877854;29;20478;-78
2020/12/13 09:24:28;;;;;;;7.55;4.60;;;;;;;6.30;87.16;96077.78;4880021;29;20389;-78
2020/12/13 09:27:05;;;;;;;15.38;4.80;;;;;;;6.30;86.33;96083.78;4862764;29;20048;-77
2020/12/13 09:29:36;;;;;;;25.02;10.60;;;;;;;6.36;86.79;96097.78;4878555;29;20033;-78
2020/12/13 09:32:03;;;;;;;8.32;4.95;;;;;;;6.38;86.84;96097.59;4878356;29;20048;-78
2020/12/13 09:34:30;;;;;;;7.43;4.22;;;;;;;6.40;86.61;96096.38;4879272;29;20076;-79
2020/12/13 09:36:56;;;;;;;6.32;4.35;;;;;;;6.41;85.76;96092.00;4861828;29;20049;-78
2020/12/13 09:39:22;;;;;;;7.65;5.78;;;;;;;6.40;85.69;96100.78;4879637;29;20091;-78
2020/12/13 09:41:48;;;;;;;5.70;4.53;;;;;;;6.39;85.55;96102.59;4862694;29;20045;-78
2020/12/13 09:44:15;;;;;;;6.82;4.53;;;;;;;6.35;85.54;96100.59;4875730;29;20049;-78
2020/12/13 09:46:41;;;;;;;5.63;5.03;;;;;;;6.29;84.69;96104.78;4863459;29;20045;-78
2020/12/13 09:49:08;;;;;;;6.50;4.75;;;;;;;6.23;85.33;96102.97;4878476;29;20395;-79
2020/12/13 09:51:34;;;;;;;6.57;4.68;;;;;;;6.20;85.27;96103.41;4874645;29;20048;-78
2020/12/13 09:54:00;;;;;;;7.55;5.30;;;;;;;6.15;85.02;96093.56;4871451;29;20061;-78
2020/12/13 09:56:26;;;;;;;5.22;4.07;;;;;;;6.13;85.04;96105.16;4862088;29;20056;-79
2020/12/13 09:58:53;;;;;;;5.07;4.38;;;;;;;6.10;85.00;96101.16;4868203;29;20052;-78
2020/12/13 10:01:19;;;;;;;7.68;4.30;;;;;;;6.12;85.25;96103.59;4830752;29;20052;-78
2020/12/13 10:03:49;;;;;;;5.28;4.10;;;;;;;6.12;84.99;96106.19;4879012;29;20486;-79
2020/12/13 10:11:21;;;;;;;8.10;5.25;;;;;;;6.14;84.56;96118.00;4851264;29;20052;-79
2020/12/13 10:13:47;;;;;;;6.03;4.38;;;;;;;6.08;83.46;96108.38;4881252;29;20045;-78
2020/12/13 10:16:17;;;;;;;6.15;4.30;;;;;;;6.02;83.34;96106.56;4880671;29;20064;-78
2020/12/13 10:18:43;;;;;;;7.07;4.70;;;;;;;5.98;83.67;96107.94;4875371;29;20048;-79
2020/12/13 10:21:09;;;;;;;8.88;7.95;;;;;;;6.00;84.14;96114.56;4865914;29;20045;-79
2020/12/13 10:23:36;;;;;;;6.53;5.75;;;;;;;6.00;83.77;96100.75;4881015;29;20045;-78
2020/12/13 10:26:02;;;;;;;9.35;4.53;;;;;;;6.02;84.11;96102.13;4865825;29;20045;-79
2020/12/13 10:28:28;;;;;;;8.70;4.68;;;;;;;6.06;84.16;96103.34;4859024;29;20041;-78
2020/12/13 10:30:54;;;;;;;8.57;4.75;;;;;;;6.08;84.40;96111.78;4880956;29;20041;-78
2020/12/13 10:33:21;;;;;;;5.53;4.43;;;;;;;6.07;84.06;96104.97;4880732;29;20057;-79
2020/12/13 10:35:47;;;;;;;7.68;5.10;;;;;;;6.06;83.75;96116.38;4850808;29;20038;-81
2020/12/13 10:38:13;;;;;;;6.70;5.00;;;;;;;6.06;84.32;96107.75;4854145;29;20453;-79
2020/12/13 10:40:39;;;;;;;6.53;5.05;;;;;;;6.10;84.23;96108.97;4850155;29;20421;-79
2020/12/13 10:43:05;;;;;;;6.75;4.53;;;;;;;6.12;84.34;96106.97;4877267;29;20123;-83
2020/12/13 10:45:32;;;;;;;7.10;4.65;;;;;;;6.17;84.48;96108.97;4879795;29;20430;-78
2020/12/13 10:47:59;;;;;;;8.90;5.80;;;;;;;6.18;84.03;96108.00;4881037;29;20045;-78
2020/12/13 10:50:25;;;;;;;7.15;5.00;;;;;;;6.18;83.93;96108.00;4863755;29;20053;-82
2020/12/13 10:52:53;;;;;;;8.52;5.32;;;;;;;6.19;83.81;96112.19;4881739;29;20056;-81
2020/12/13 10:55:21;;;;;;;5.97;4.55;;;;;;;6.19;83.61;96112.19;4863882;29;20044;-80
2020/12/13 10:57:48;;;;;;;9.68;5.15;;;;;;;6.19;83.72;96114.78;4881578;29;20064;-79
2020/12/13 11:00:14;;;;;;;8.18;4.65;;;;;;;6.15;83.44;96110.97;4881145;29;20394;-79
2020/12/13 11:02:40;;;;;;;9.45;5.82;;;;;;;6.09;83.17;96110.78;4854888;29;20045;-80
2020/12/13 11:05:07;;;;;;;10.27;5.88;;;;;;;6.09;83.74;96110.78;4880376;29;20045;-80
2020/12/13 11:07:33;;;;;;;8.27;5.40;;;;;;;6.09;83.44;96108.19;4876992;29;20052;-77
2020/12/13 11:09:59;;;;;;;6.22;5.07;;;;;;;6.09;83.29;96110.00;4862653;29;20409;-76
2020/12/13 11:12:25;;;;;;;7.18;4.70;;;;;;;6.09;83.33;96110.78;4881315;29;20052;-81
2020/12/13 11:14:51;;;;;;;6.95;4.68;;;;;;;6.10;83.43;96114.19;4880879;29;20049;-79
2020/12/13 11:17:18;;;;;;;10.63;4.40;;;;;;;6.10;83.15;96106.38;4880899;29;20391;-79
2020/12/13 11:19:44;;;;;;;9.55;5.93;;;;;;;6.09;83.37;96105.56;4868631;29;20493;-79
2020/12/13 11:22:10;;;;;;;9.27;4.70;;;;;;;6.22;86.36;96115.22;4847876;29;20406;-76
2020/12/13 11:24:37;;;;;;;8.02;5.07;;;;;;;6.96;97.14;96110.00;4884462;29;20052;-78
2020/12/13 11:27:06;;;;;;;10.07;6.47;;;;;;;7.29;87.22;96110.72;4881444;29;20049;-77
2020/12/13 11:29:34;;;;;;;8.15;5.85;;;;;;;7.33;84.30;96113.72;4880839;29;20045;-78
2020/12/13 11:32:01;;;;;;;10.15;6.05;;;;;;;7.24;82.99;96114.94;4880499;29;20065;-84
2020/12/13 11:34:55;;;;;;;8.43;5.28;;;;;;;7.13;82.41;96118.97;4881123;29;20037;-77
2020/12/13 11:37:48;;;;;;;8.13;5.57;;;;;;;7.00;82.07;96113.81;4881101;29;20049;-75
2020/12/13 11:40:37;;;;;;;8.05;5.57;;;;;;;6.90;81.79;96112.41;4882861;29;20049;-77
2020/12/13 11:43:16;;;;;;;;;;;;;;;;;;;;;
2020/12/13 11:45:52;;;;;;;7.18;5.40;;;;;;;6.69;82.00;96112.63;4879793;29;20409;-75
2020/12/13 11:48:30;;;;;;;6.20;5.60;;;;;;;6.62;82.30;96114.44;4880819;29;20045;-75
2020/12/13 11:51:10;;;;;;;9.25;5.07;;;;;;;6.56;82.86;96113.44;4880332;29;20504;-76
2020/12/13 11:53:45;;;;;;;7.22;4.20;;;;;;;6.52;82.65;96111.44;4880602;29;20486;-77